sensor_id;sensor_type;location;lat;lon;timestamp;pressure;altitude;pressure_sealevel;temperature;humidity
8398;BME280;4236;54.504;9.588;2022-08-23T00:02:24;101697.41;;;19.11;100.00
8398;BME280;4236;54.504;9.588;2022-08-23T00:04:53;101710.09;;;19.10;100.00
8398;BME280;4236;54.504;9.588;2022-08-23T00:07:35;101701.97;;;19.10;100.00
8398;BME280;4236;54.504;9.588;2022-08-23T00:10:06;101695.53;;;19.11;100.00
8398;BME280;4236;54.504;9.588;2022-08-23T00:12:34;101697.97;;;19.13;100.00
8398;BME280;4236;54.504;9.588;2022-08-23T00:15:03;101700.47;;;19.14;99.96
8398;BME280;4236;54.504;9.588;2022-08-23T00:17:32;101710.09;;;19.10;100.00
8398;BME280;4236;54.504;9.588;2022-08-23T00:20:01;101699.03;;;19.12;100.00
8398;BME280;4236;54.504;9.588;2022-08-23T00:22:28;101700.94;;;19.11;100.00
8398;BME280;4236;54.504;9.588;2022-08-23T00:24:57;101700.69;;;19.13;100.00
8398;BME280;4236;54.504;9.588;2022-08-23T00:27:25;101690.69;;;19.13;99.94
8398;BME280;4236;54.504;9.588;2022-08-23T00:29:55;101693.41;;;19.13;99.44
8398;BME280;4236;54.504;9.588;2022-08-23T00:32:26;101688.22;;;19.12;99.10
8398;BME280;4236;54.504;9.588;2022-08-23T00:34:54;101690.34;;;19.10;99.27
8398;BME280;4236;54.504;9.588;2022-08-23T00:37:22;101687.63;;;19.10;98.89
8398;BME280;4236;54.504;9.588;2022-08-23T00:39:50;101688.91;;;19.07;98.86
8398;BME280;4236;54.504;9.588;2022-08-23T00:42:29;101690.78;;;19.07;98.72
8398;BME280;4236;54.504;9.588;2022-08-23T00:45:20;101687.72;;;19.03;98.42
8398;BME280;4236;54.504;9.588;2022-08-23T00:48:07;101692.16;;;18.98;98.69
8398;BME280;4236;54.504;9.588;2022-08-23T00:50:38;101697.56;;;18.98;98.31
8398;BME280;4236;54.504;9.588;2022-08-23T00:53:11;101700.50;;;18.96;98.55
8398;BME280;4236;54.504;9.588;2022-08-23T00:55:44;101701.31;;;18.97;98.35
8398;BME280;4236;54.504;9.588;2022-08-23T00:58:15;101699.44;;;18.97;98.15
8398;BME280;4236;54.504;9.588;2022-08-23T01:00:43;101704.84;;;18.97;98.14
8398;BME280;4236;54.504;9.588;2022-08-23T01:03:11;101708.00;;;18.94;98.15
8398;BME280;4236;54.504;9.588;2022-08-23T01:05:44;101702.38;;;18.96;98.32
8398;BME280;4236;54.504;9.588;2022-08-23T01:08:13;101698.03;;;18.95;98.10
8398;BME280;4236;54.504;9.588;2022-08-23T01:10:45;101709.09;;;18.93;97.70
8398;BME280;4236;54.504;9.588;2022-08-23T01:13:20;101702.47;;;18.89;97.67
8398;BME280;4236;54.504;9.588;2022-08-23T01:15:54;101704.78;;;18.86;97.42
8398;BME280;4236;54.504;9.588;2022-08-23T01:18:24;101704.66;;;18.81;97.37
8398;BME280;4236;54.504;9.588;2022-08-23T01:20:56;101698.06;;;18.76;97.31
8398;BME280;4236;54.504;9.588;2022-08-23T01:23:33;101698.97;;;18.70;97.61
8398;BME280;4236;54.504;9.588;2022-08-23T01:26:04;101696.97;;;18.66;97.93
8398;BME280;4236;54.504;9.588;2022-08-23T01:28:33;101696.19;;;18.59;98.29
8398;BME280;4236;54.504;9.588;2022-08-23T01:31:02;101700.38;;;18.55;98.43
8398;BME280;4236;54.504;9.588;2022-08-23T01:33:32;101702.34;;;18.48;98.63
8398;BME280;4236;54.504;9.588;2022-08-23T01:36:00;101690.56;;;18.42;98.80
8398;BME280;4236;54.504;9.588;2022-08-23T01:38:36;101700.38;;;18.37;99.07
8398;BME280;4236;54.504;9.588;2022-08-23T01:41:04;101700.66;;;18.29;99.37
8398;BME280;4236;54.504;9.588;2022-08-23T01:43:32;101695.13;;;18.23;99.84
8398;BME280;4236;54.504;9.588;2022-08-23T01:46:07;101701.41;;;18.17;99.99
8398;BME280;4236;54.504;9.588;2022-08-23T01:48:37;101693.97;;;18.13;100.00
8398;BME280;4236;54.504;9.588;2022-08-23T01:51:05;101699.22;;;18.08;100.00
8398;BME280;4236;54.504;9.588;2022-08-23T01:53:33;101698.03;;;18.04;100.00
8398;BME280;4236;54.504;9.588;2022-08-23T01:56:03;101693.28;;;17.99;100.00
8398;BME280;4236;54.504;9.588;2022-08-23T01:58:31;101692.91;;;17.96;100.00
8398;BME280;4236;54.504;9.588;2022-08-23T02:01:01;101698.97;;;17.91;100.00
8398;BME280;4236;54.504;9.588;2022-08-23T02:03:31;101690.50;;;17.88;100.00
8398;BME280;4236;54.504;9.588;2022-08-23T02:05:59;101693.63;;;17.85;100.00
8398;BME280;4236;54.504;9.588;2022-08-23T02:08:26;101696.78;;;17.82;100.00
8398;BME280;4236;54.504;9.588;2022-08-23T02:11:19;101690.78;;;17.80;100.00
8398;BME280;4236;54.504;9.588;2022-08-23T02:13:49;101695.78;;;17.76;100.00
8398;BME280;4236;54.504;9.588;2022-08-23T02:16:21;101699.50;;;17.75;100.00
8398;BME280;4236;54.504;9.588;2022-08-23T02:18:50;101689.16;;;17.72;100.00
8398;BME280;4236;54.504;9.588;2022-08-23T02:21:18;101691.28;;;17.70;100.00
8398;BME280;4236;54.504;9.588;2022-08-23T02:23:46;101691.72;;;17.67;100.00
8398;BME280;4236;54.504;9.588;2022-08-23T02:26:15;101694.41;;;17.67;100.00
8398;BME280;4236;54.504;9.588;2022-08-23T02:28:43;101704.59;;;17.65;100.00
8398;BME280;4236;54.504;9.588;2022-08-23T02:31:12;101702.34;;;17.62;100.00
8398;BME280;4236;54.504;9.588;2022-08-23T02:33:39;101702.34;;;17.62;100.00
8398;BME280;4236;54.504;9.588;2022-08-23T02:36:07;101693.41;;;17.61;100.00
8398;BME280;4236;54.504;9.588;2022-08-23T02:38:35;101697.16;;;17.60;100.00
8398;BME280;4236;54.504;9.588;2022-08-23T02:41:03;101686.38;;;17.60;100.00
8398;BME280;4236;54.504;9.588;2022-08-23T02:43:32;101690.09;;;17.59;100.00
8398;BME280;4236;54.504;9.588;2022-08-23T02:46:06;101688.47;;;17.58;100.00
8398;BME280;4236;54.504;9.588;2022-08-23T02:48:34;101688.22;;;17.60;100.00
8398;BME280;4236;54.504;9.588;2022-08-23T02:51:05;101703.13;;;17.62;100.00
8398;BME280;4236;54.504;9.588;2022-08-23T02:53:33;101688.84;;;17.62;100.00
8398;BME280;4236;54.504;9.588;2022-08-23T02:56:02;101692.34;;;17.62;100.00
8398;BME280;4236;54.504;9.588;2022-08-23T02:58:31;101693.81;;;17.65;100.00
8398;BME280;4236;54.504;9.588;2022-08-23T03:00:59;101701.66;;;17.66;100.00
8398;BME280;4236;54.504;9.588;2022-08-23T03:03:27;101699.81;;;17.67;100.00
8398;BME280;4236;54.504;9.588;2022-08-23T03:05:58;101698.53;;;17.69;100.00
8398;BME280;4236;54.504;9.588;2022-08-23T03:08:46;101696.22;;;17.73;100.00
8398;BME280;4236;54.504;9.588;2022-08-23T03:11:16;101693.28;;;17.75;100.00
8398;BME280;4236;54.504;9.588;2022-08-23T03:13:48;101700.34;;;17.76;100.00
8398;BME280;4236;54.504;9.588;2022-08-23T03:16:16;101700.13;;;17.77;100.00
8398;BME280;4236;54.504;9.588;2022-08-23T03:18:44;101699.06;;;17.78;100.00
8398;BME280;4236;54.504;9.588;2022-08-23T03:21:12;101699.47;;;17.82;100.00
8398;BME280;4236;54.504;9.588;2022-08-23T03:23:40;101695.94;;;17.81;100.00
8398;BME280;4236;54.504;9.588;2022-08-23T03:26:09;101691.97;;;17.84;100.00
8398;BME280;4236;54.504;9.588;2022-08-23T03:28:38;101700.88;;;17.84;100.00
8398;BME280;4236;54.504;9.588;2022-08-23T03:31:08;101694.66;;;17.84;100.00
8398;BME280;4236;54.504;9.588;2022-08-23T03:33:37;101701.50;;;17.86;100.00
8398;BME280;4236;54.504;9.588;2022-08-23T03:36:06;101702.94;;;17.89;100.00
8398;BME280;4236;54.504;9.588;2022-08-23T03:38:35;101704.56;;;17.90;100.00
8398;BME280;4236;54.504;9.588;2022-08-23T03:41:05;101703.75;;;17.89;100.00
8398;BME280;4236;54.504;9.588;2022-08-23T03:43:33;101702.50;;;17.92;100.00
8398;BME280;4236;54.504;9.588;2022-08-23T03:46:01;101705.78;;;17.94;100.00
8398;BME280;4236;54.504;9.588;2022-08-23T03:48:30;101702.25;;;17.93;100.00
8398;BME280;4236;54.504;9.588;2022-08-23T03:50:58;101706.19;;;17.97;100.00
8398;BME280;4236;54.504;9.588;2022-08-23T03:53:25;101703.47;;;17.97;100.00
8398;BME280;4236;54.504;9.588;2022-08-23T03:55:54;101711.56;;;17.97;100.00
8398;BME280;4236;54.504;9.588;2022-08-23T03:58:22;101706.19;;;17.97;100.00
8398;BME280;4236;54.504;9.588;2022-08-23T04:00:50;101710.50;;;17.98;100.00
8398;BME280;4236;54.504;9.588;2022-08-23T04:03:18;101703.88;;;18.01;100.00
8398;BME280;4236;54.504;9.588;2022-08-23T04:05:47;101713.41;;;18.03;100.00
8398;BME280;4236;54.504;9.588;2022-08-23T04:08:14;101703.44;;;18.04;100.00
8398;BME280;4236;54.504;9.588;2022-08-23T04:10:53;101714.81;;;18.06;100.00
8398;BME280;4236;54.504;9.588;2022-08-23T04:13:21;101705.06;;;18.05;100.00
8398;BME280;4236;54.504;9.588;2022-08-23T04:15:52;101720.41;;;18.04;100.00
8398;BME280;4236;54.504;9.588;2022-08-23T04:18:20;101714.56;;;18.07;100.00
8398;BME280;4236;54.504;9.588;2022-08-23T04:20:49;101721.41;;;18.10;100.00
8398;BME280;4236;54.504;9.588;2022-08-23T04:23:17;101723.31;;;18.09;100.00
8398;BME280;4236;54.504;9.588;2022-08-23T04:25:45;101714.75;;;18.12;100.00
8398;BME280;4236;54.504;9.588;2022-08-23T04:28:13;101728.84;;;18.14;100.00
8398;BME280;4236;54.504;9.588;2022-08-23T04:30:41;101730.50;;;18.15;100.00
8398;BME280;4236;54.504;9.588;2022-08-23T04:33:12;101724.88;;;18.17;100.00
8398;BME280;4236;54.504;9.588;2022-08-23T04:35:44;101730.88;;;18.19;100.00
8398;BME280;4236;54.504;9.588;2022-08-23T04:38:13;101727.97;;;18.20;100.00
8398;BME280;4236;54.504;9.588;2022-08-23T04:40:51;101734.19;;;18.21;100.00
8398;BME280;4236;54.504;9.588;2022-08-23T04:43:37;101737.47;;;18.23;100.00
8398;BME280;4236;54.504;9.588;2022-08-23T04:46:04;101737.28;;;18.24;100.00
8398;BME280;4236;54.504;9.588;2022-08-23T04:48:32;101744.31;;;18.25;100.00
8398;BME280;4236;54.504;9.588;2022-08-23T04:51:01;101738.69;;;18.27;100.00
8398;BME280;4236;54.504;9.588;2022-08-23T04:53:30;101741.56;;;18.32;100.00
8398;BME280;4236;54.504;9.588;2022-08-23T04:56:01;101745.28;;;18.31;100.00
8398;BME280;4236;54.504;9.588;2022-08-23T04:58:29;101749.22;;;18.35;100.00
8398;BME280;4236;54.504;9.588;2022-08-23T05:00:58;101745.03;;;18.39;100.00
8398;BME280;4236;54.504;9.588;2022-08-23T05:03:26;101745.03;;;18.39;100.00
8398;BME280;4236;54.504;9.588;2022-08-23T05:05:55;101751.59;;;18.43;100.00
8398;BME280;4236;54.504;9.588;2022-08-23T05:08:23;101739.75;;;18.44;100.00
8398;BME280;4236;54.504;9.588;2022-08-23T05:10:52;101746.44;;;18.42;99.81
8398;BME280;4236;54.504;9.588;2022-08-23T05:13:20;101752.44;;;18.44;99.89
8398;BME280;4236;54.504;9.588;2022-08-23T05:15:49;101742.00;;;18.47;100.00
8398;BME280;4236;54.504;9.588;2022-08-23T05:18:17;101742.00;;;18.47;99.37
8398;BME280;4236;54.504;9.588;2022-08-23T05:20:45;101752.00;;;18.47;98.84
8398;BME280;4236;54.504;9.588;2022-08-23T05:23:13;101758.63;;;18.51;99.25
8398;BME280;4236;54.504;9.588;2022-08-23T05:25:41;101744.44;;;18.55;98.84
8398;BME280;4236;54.504;9.588;2022-08-23T05:28:21;101760.38;;;18.63;98.88
8398;BME280;4236;54.504;9.588;2022-08-23T05:30:57;101758.66;;;18.69;98.22
8398;BME280;4236;54.504;9.588;2022-08-23T05:33:28;101759.81;;;18.73;97.95
8398;BME280;4236;54.504;9.588;2022-08-23T05:35:56;101764.56;;;18.77;97.31
8398;BME280;4236;54.504;9.588;2022-08-23T05:38:24;101765.78;;;18.82;96.79
8398;BME280;4236;54.504;9.588;2022-08-23T05:40:54;101759.22;;;18.89;96.68
8398;BME280;4236;54.504;9.588;2022-08-23T05:43:27;101766.81;;;18.99;96.73
8398;BME280;4236;54.504;9.588;2022-08-23T05:45:59;101769.72;;;18.97;94.31
8398;BME280;4236;54.504;9.588;2022-08-23T05:48:29;101767.53;;;19.06;94.64
8398;BME280;4236;54.504;9.588;2022-08-23T05:51:07;101772.66;;;19.14;94.68
8398;BME280;4236;54.504;9.588;2022-08-23T05:53:35;101774.31;;;19.26;94.93
8398;BME280;4236;54.504;9.588;2022-08-23T05:56:09;101785.22;;;19.38;93.74
8398;BME280;4236;54.504;9.588;2022-08-23T05:58:39;101779.72;;;19.45;92.53
8398;BME280;4236;54.504;9.588;2022-08-23T06:01:07;101781.88;;;19.54;92.40
8398;BME280;4236;54.504;9.588;2022-08-23T06:03:35;101783.56;;;19.67;91.54
8398;BME280;4236;54.504;9.588;2022-08-23T06:06:04;101793.13;;;19.81;91.29
8398;BME280;4236;54.504;9.588;2022-08-23T06:08:32;101786.94;;;19.92;90.14
8398;BME280;4236;54.504;9.588;2022-08-23T06:11:02;101788.94;;;20.08;88.13
8398;BME280;4236;54.504;9.588;2022-08-23T06:13:30;101797.06;;;20.20;87.04
8398;BME280;4236;54.504;9.588;2022-08-23T06:15:59;101794.41;;;20.31;86.75
8398;BME280;4236;54.504;9.588;2022-08-23T06:18:40;101798.53;;;20.46;86.26
8398;BME280;4236;54.504;9.588;2022-08-23T06:21:09;101800.31;;;20.52;84.46
8398;BME280;4236;54.504;9.588;2022-08-23T06:23:37;101797.44;;;20.70;82.45
8398;BME280;4236;54.504;9.588;2022-08-23T06:26:09;101805.31;;;20.94;82.92
8398;BME280;4236;54.504;9.588;2022-08-23T06:28:37;101800.75;;;21.35;83.95
8398;BME280;4236;54.504;9.588;2022-08-23T06:31:19;101797.13;;;21.74;78.96
8398;BME280;4236;54.504;9.588;2022-08-23T06:34:07;101798.63;;;21.98;77.04
8398;BME280;4236;54.504;9.588;2022-08-23T06:36:35;101799.00;;;22.19;75.86
8398;BME280;4236;54.504;9.588;2022-08-23T06:39:03;101798.41;;;22.33;73.89
8398;BME280;4236;54.504;9.588;2022-08-23T06:41:32;101797.91;;;22.58;74.15
8398;BME280;4236;54.504;9.588;2022-08-23T06:44:00;101801.53;;;22.80;72.33
8398;BME280;4236;54.504;9.588;2022-08-23T06:46:30;101789.16;;;22.89;71.02
8398;BME280;4236;54.504;9.588;2022-08-23T06:48:58;101793.72;;;23.05;69.90
8398;BME280;4236;54.504;9.588;2022-08-23T06:51:28;101803.72;;;23.27;72.83
8398;BME280;4236;54.504;9.588;2022-08-23T06:53:58;101803.03;;;23.36;71.87
8398;BME280;4236;54.504;9.588;2022-08-23T06:56:29;101796.66;;;23.26;68.67
8398;BME280;4236;54.504;9.588;2022-08-23T06:58:57;101799.19;;;23.10;68.26
8398;BME280;4236;54.504;9.588;2022-08-23T07:01:29;101799.69;;;22.86;67.25
8398;BME280;4236;54.504;9.588;2022-08-23T07:04:16;101805.53;;;22.73;67.38
8398;BME280;4236;54.504;9.588;2022-08-23T07:06:44;101799.91;;;22.63;67.82
8398;BME280;4236;54.504;9.588;2022-08-23T07:09:13;101796.03;;;22.58;68.51
8398;BME280;4236;54.504;9.588;2022-08-23T07:11:41;101801.66;;;22.69;69.19
8398;BME280;4236;54.504;9.588;2022-08-23T07:14:12;101799.34;;;22.60;68.22
8398;BME280;4236;54.504;9.588;2022-08-23T07:16:43;101808.75;;;22.70;68.30
8398;BME280;4236;54.504;9.588;2022-08-23T07:19:11;101804.75;;;22.77;68.47
8398;BME280;4236;54.504;9.588;2022-08-23T07:21:40;101794.16;;;22.76;67.02
8398;BME280;4236;54.504;9.588;2022-08-23T07:24:08;101807.31;;;22.84;67.76
8398;BME280;4236;54.504;9.588;2022-08-23T07:26:36;101801.91;;;22.89;67.14
8398;BME280;4236;54.504;9.588;2022-08-23T07:29:05;101803.06;;;22.93;66.24
8398;BME280;4236;54.504;9.588;2022-08-23T07:31:37;101807.69;;;22.92;65.76
8398;BME280;4236;54.504;9.588;2022-08-23T07:34:07;101800.34;;;22.93;65.74
8398;BME280;4236;54.504;9.588;2022-08-23T07:36:38;101807.22;;;23.00;65.84
8398;BME280;4236;54.504;9.588;2022-08-23T07:39:06;101803.78;;;23.05;65.51
8398;BME280;4236;54.504;9.588;2022-08-23T07:41:35;101813.81;;;23.26;65.81
8398;BME280;4236;54.504;9.588;2022-08-23T07:44:05;101810.28;;;23.47;65.79
8398;BME280;4236;54.504;9.588;2022-08-23T07:46:36;101815.13;;;23.72;65.23
8398;BME280;4236;54.504;9.588;2022-08-23T07:49:09;101817.03;;;23.72;62.89
8398;BME280;4236;54.504;9.588;2022-08-23T07:51:39;101812.00;;;23.85;63.15
8398;BME280;4236;54.504;9.588;2022-08-23T07:54:09;101816.44;;;23.96;61.10
8398;BME280;4236;54.504;9.588;2022-08-23T07:56:37;101805.19;;;24.14;62.33
8398;BME280;4236;54.504;9.588;2022-08-23T07:59:06;101821.53;;;24.51;61.48
8398;BME280;4236;54.504;9.588;2022-08-23T08:01:34;101820.94;;;24.86;59.39
8398;BME280;4236;54.504;9.588;2022-08-23T08:04:04;101827.56;;;25.00;59.66
8398;BME280;4236;54.504;9.588;2022-08-23T08:06:38;101824.28;;;24.93;55.77
8398;BME280;4236;54.504;9.588;2022-08-23T08:09:07;101831.47;;;25.14;59.10
8398;BME280;4236;54.504;9.588;2022-08-23T08:11:35;101837.59;;;25.57;58.26
8398;BME280;4236;54.504;9.588;2022-08-23T08:14:05;101841.00;;;26.19;58.71
8398;BME280;4236;54.504;9.588;2022-08-23T08:16:35;101827.84;;;26.52;55.30
8398;BME280;4236;54.504;9.588;2022-08-23T08:19:05;101830.22;;;26.88;53.76
8398;BME280;4236;54.504;9.588;2022-08-23T08:21:36;101836.34;;;27.29;53.67
8398;BME280;4236;54.504;9.588;2022-08-23T08:24:08;101830.97;;;27.04;51.90
8398;BME280;4236;54.504;9.588;2022-08-23T08:26:38;101836.66;;;27.23;50.30
8398;BME280;4236;54.504;9.588;2022-08-23T08:29:06;101836.09;;;27.26;50.69
8398;BME280;4236;54.504;9.588;2022-08-23T08:31:35;101838.09;;;27.00;48.44
8398;BME280;4236;54.504;9.588;2022-08-23T08:34:04;101840.59;;;26.91;48.22
8398;BME280;4236;54.504;9.588;2022-08-23T08:36:37;101831.25;;;27.08;49.67
8398;BME280;4236;54.504;9.588;2022-08-23T08:39:08;101839.72;;;27.11;47.92
8398;BME280;4236;54.504;9.588;2022-08-23T08:41:47;101837.06;;;26.86;47.02
8398;BME280;4236;54.504;9.588;2022-08-23T08:44:37;101829.41;;;26.78;45.69
8398;BME280;4236;54.504;9.588;2022-08-23T08:47:09;101844.19;;;26.87;47.96
8398;BME280;4236;54.504;9.588;2022-08-23T08:49:48;101837.81;;;27.07;45.80
8398;BME280;4236;54.504;9.588;2022-08-23T08:52:23;101845.97;;;27.27;46.80
8398;BME280;4236;54.504;9.588;2022-08-23T08:55:03;101838.78;;;27.31;44.77
8398;BME280;4236;54.504;9.588;2022-08-23T08:57:37;101839.06;;;27.34;45.08
8398;BME280;4236;54.504;9.588;2022-08-23T09:00:09;101832.22;;;27.32;44.23
8398;BME280;4236;54.504;9.588;2022-08-23T09:02:38;101840.75;;;27.25;44.25
8398;BME280;4236;54.504;9.588;2022-08-23T09:05:10;101844.78;;;27.38;44.70
8398;BME280;4236;54.504;9.588;2022-08-23T09:07:46;101852.97;;;27.48;44.79
8398;BME280;4236;54.504;9.588;2022-08-23T09:10:29;101833.00;;;27.37;43.67
8398;BME280;4236;54.504;9.588;2022-08-23T09:13:19;101836.91;;;27.21;44.43
8398;BME280;4236;54.504;9.588;2022-08-23T09:15:56;101844.22;;;27.46;43.95
8398;BME280;4236;54.504;9.588;2022-08-23T09:18:31;101839.72;;;27.11;44.19
8398;BME280;4236;54.504;9.588;2022-08-23T09:21:02;101841.34;;;27.17;46.09
8398;BME280;4236;54.504;9.588;2022-08-23T09:23:37;101841.56;;;27.26;44.55
8398;BME280;4236;54.504;9.588;2022-08-23T09:26:17;101833.50;;;26.90;45.77
8398;BME280;4236;54.504;9.588;2022-08-23T09:28:45;101831.53;;;27.01;44.97
8398;BME280;4236;54.504;9.588;2022-08-23T09:31:35;101843.84;;;27.04;45.50
8398;BME280;4236;54.504;9.588;2022-08-23T09:34:03;101841.19;;;26.78;44.95
8398;BME280;4236;54.504;9.588;2022-08-23T09:36:33;101842.84;;;26.84;45.46
8398;BME280;4236;54.504;9.588;2022-08-23T09:39:05;101832.94;;;26.93;44.59
8398;BME280;4236;54.504;9.588;2022-08-23T09:41:35;101842.53;;;26.96;46.13
8398;BME280;4236;54.504;9.588;2022-08-23T09:44:06;101838.94;;;26.96;45.43
8398;BME280;4236;54.504;9.588;2022-08-23T09:46:36;101846.41;;;26.70;45.18
8398;BME280;4236;54.504;9.588;2022-08-23T09:49:23;101842.81;;;26.79;44.39
8398;BME280;4236;54.504;9.588;2022-08-23T09:51:52;101840.63;;;26.76;45.18
8398;BME280;4236;54.504;9.588;2022-08-23T09:54:27;101841.41;;;26.97;45.07
8398;BME280;4236;54.504;9.588;2022-08-23T09:56:57;101835.88;;;27.12;44.97
8398;BME280;4236;54.504;9.588;2022-08-23T09:59:39;101833.78;;;26.94;44.07
8398;BME280;4236;54.504;9.588;2022-08-23T10:02:14;101828.47;;;27.18;44.25
8398;BME280;4236;54.504;9.588;2022-08-23T10:04:53;101837.59;;;26.93;43.79
8398;BME280;4236;54.504;9.588;2022-08-23T10:07:34;101824.22;;;26.61;43.62
8398;BME280;4236;54.504;9.588;2022-08-23T10:10:16;101830.78;;;26.80;44.45
8398;BME280;4236;54.504;9.588;2022-08-23T10:12:45;101819.53;;;26.77;43.98
8398;BME280;4236;54.504;9.588;2022-08-23T10:15:15;101826.94;;;26.71;44.82
8398;BME280;4236;54.504;9.588;2022-08-23T10:17:48;101828.31;;;26.79;44.23
8398;BME280;4236;54.504;9.588;2022-08-23T10:20:29;101822.28;;;26.77;43.50
8398;BME280;4236;54.504;9.588;2022-08-23T10:23:06;101816.75;;;27.02;44.35
8398;BME280;4236;54.504;9.588;2022-08-23T10:25:42;101824.06;;;27.22;44.22
8398;BME280;4236;54.504;9.588;2022-08-23T10:28:18;101817.94;;;27.40;42.22
8398;BME280;4236;54.504;9.588;2022-08-23T10:31:11;101800.91;;;27.48;42.45
8398;BME280;4236;54.504;9.588;2022-08-23T10:33:44;101805.34;;;27.44;42.81
8398;BME280;4236;54.504;9.588;2022-08-23T10:36:15;101804.81;;;27.37;43.14
8398;BME280;4236;54.504;9.588;2022-08-23T10:38:51;101800.41;;;27.41;41.60
8398;BME280;4236;54.504;9.588;2022-08-23T10:41:52;101798.84;;;27.25;42.02
8398;BME280;4236;54.504;9.588;2022-08-23T10:44:26;101795.78;;;27.31;40.83
8398;BME280;4236;54.504;9.588;2022-08-23T10:47:17;101785.44;;;27.18;40.85
8398;BME280;4236;54.504;9.588;2022-08-23T10:49:49;101798.25;;;27.33;41.21
8398;BME280;4236;54.504;9.588;2022-08-23T10:52:21;101807.47;;;27.52;40.64
8398;BME280;4236;54.504;9.588;2022-08-23T10:54:54;101803.41;;;27.39;39.82
8398;BME280;4236;54.504;9.588;2022-08-23T10:57:35;101801.91;;;27.13;40.82
8398;BME280;4236;54.504;9.588;2022-08-23T11:00:06;101803.44;;;27.44;40.76
8398;BME280;4236;54.504;9.588;2022-08-23T11:02:39;101797.09;;;27.39;40.28
8398;BME280;4236;54.504;9.588;2022-08-23T11:05:17;101805.09;;;27.35;38.75
8398;BME280;4236;54.504;9.588;2022-08-23T11:07:56;101798.16;;;27.53;38.35
8398;BME280;4236;54.504;9.588;2022-08-23T11:10:29;101792.59;;;27.63;39.97
8398;BME280;4236;54.504;9.588;2022-08-23T11:13:01;101795.34;;;27.63;38.84
8398;BME280;4236;54.504;9.588;2022-08-23T11:15:37;101792.59;;;27.68;38.53
8398;BME280;4236;54.504;9.588;2022-08-23T11:18:35;101789.22;;;27.76;38.95
8398;BME280;4236;54.504;9.588;2022-08-23T11:23:52;101792.22;;;28.14;38.18
8398;BME280;4236;54.504;9.588;2022-08-23T11:29:34;101792.19;;;28.19;38.29
8398;BME280;4236;54.504;9.588;2022-08-23T11:32:15;101793.53;;;28.21;37.41
8398;BME280;4236;54.504;9.588;2022-08-23T11:34:53;101792.22;;;28.14;36.88
8398;BME280;4236;54.504;9.588;2022-08-23T11:37:29;101784.78;;;28.19;37.30
8398;BME280;4236;54.504;9.588;2022-08-23T11:40:06;101792.78;;;28.39;38.30
8398;BME280;4236;54.504;9.588;2022-08-23T11:42:48;101792.88;;;28.58;38.13
8398;BME280;4236;54.504;9.588;2022-08-23T11:45:27;101786.72;;;28.42;37.71
8398;BME280;4236;54.504;9.588;2022-08-23T11:48:10;101784.75;;;28.48;36.68
8398;BME280;4236;54.504;9.588;2022-08-23T11:51:02;101789.47;;;28.42;37.20
8398;BME280;4236;54.504;9.588;2022-08-23T11:53:46;101794.03;;;28.52;37.09
8398;BME280;4236;54.504;9.588;2022-08-23T11:56:31;101772.13;;;28.47;36.99
8398;BME280;4236;54.504;9.588;2022-08-23T11:59:34;101770.66;;;28.31;36.41
8398;BME280;4236;54.504;9.588;2022-08-23T12:02:32;101774.97;;;28.13;36.60
8398;BME280;4236;54.504;9.588;2022-08-23T12:05:09;101782.25;;;28.23;37.39
8398;BME280;4236;54.504;9.588;2022-08-23T12:07:52;101780.31;;;28.23;36.94
8398;BME280;4236;54.504;9.588;2022-08-23T12:10:23;101780.91;;;28.20;36.49
8398;BME280;4236;54.504;9.588;2022-08-23T12:13:30;101772.13;;;28.47;36.53
8398;BME280;4236;54.504;9.588;2022-08-23T12:16:08;101771.44;;;28.36;35.71
8398;BME280;4236;54.504;9.588;2022-08-23T12:18:50;101774.03;;;28.23;36.54
8398;BME280;4236;54.504;9.588;2022-08-23T12:21:22;101782.84;;;28.43;37.09
8398;BME280;4236;54.504;9.588;2022-08-23T12:23:55;101781.09;;;28.52;36.62
8398;BME280;4236;54.504;9.588;2022-08-23T12:26:28;101785.44;;;28.58;36.21
8398;BME280;4236;54.504;9.588;2022-08-23T12:29:02;101780.00;;;28.30;36.05
8398;BME280;4236;54.504;9.588;2022-08-23T12:31:32;101778.84;;;28.36;36.39
8398;BME280;4236;54.504;9.588;2022-08-23T12:34:14;101780.25;;;28.33;35.11
8398;BME280;4236;54.504;9.588;2022-08-23T12:36:50;101774.34;;;28.45;35.96
8398;BME280;4236;54.504;9.588;2022-08-23T12:39:26;101766.75;;;28.37;35.79
8398;BME280;4236;54.504;9.588;2022-08-23T12:42:00;101779.88;;;28.69;36.54
8398;BME280;4236;54.504;9.588;2022-08-23T12:44:32;101784.50;;;28.73;35.87
8398;BME280;4236;54.504;9.588;2022-08-23T12:47:09;101770.72;;;28.49;34.85
8398;BME280;4236;54.504;9.588;2022-08-23T12:49:38;101771.72;;;28.58;35.67
8398;BME280;4236;54.504;9.588;2022-08-23T12:52:08;101780.88;;;28.78;34.46
8398;BME280;4236;54.504;9.588;2022-08-23T12:54:39;101793.75;;;28.77;34.50
8398;BME280;4236;54.504;9.588;2022-08-23T12:57:13;101786.13;;;28.74;34.66
8398;BME280;4236;54.504;9.588;2022-08-23T12:59:46;101782.03;;;28.72;35.03
8398;BME280;4236;54.504;9.588;2022-08-23T13:02:25;101770.09;;;28.58;35.33
8398;BME280;4236;54.504;9.588;2022-08-23T13:04:56;101767.81;;;28.41;35.69
8398;BME280;4236;54.504;9.588;2022-08-23T13:07:28;101766.88;;;28.50;35.97
8398;BME280;4236;54.504;9.588;2022-08-23T13:09:58;101774.41;;;28.40;35.66
8398;BME280;4236;54.504;9.588;2022-08-23T13:12:26;101764.94;;;28.51;35.41
8398;BME280;4236;54.504;9.588;2022-08-23T13:14:54;101766.91;;;28.74;35.59
8398;BME280;4236;54.504;9.588;2022-08-23T13:17:31;101771.88;;;28.72;35.18
8398;BME280;4236;54.504;9.588;2022-08-23T13:20:17;101771.63;;;28.69;34.17
8398;BME280;4236;54.504;9.588;2022-08-23T13:22:55;101768.38;;;28.62;34.98
8398;BME280;4236;54.504;9.588;2022-08-23T13:25:26;101759.41;;;28.80;34.77
8398;BME280;4236;54.504;9.588;2022-08-23T13:27:58;101756.22;;;28.73;34.29
8398;BME280;4236;54.504;9.588;2022-08-23T13:30:28;101753.09;;;28.55;33.99
8398;BME280;4236;54.504;9.588;2022-08-23T13:33:19;101754.56;;;28.48;34.42
8398;BME280;4236;54.504;9.588;2022-08-23T13:35:47;101755.03;;;28.55;34.31
8398;BME280;4236;54.504;9.588;2022-08-23T13:38:21;101756.91;;;28.60;34.68
8398;BME280;4236;54.504;9.588;2022-08-23T13:40:55;101756.50;;;28.71;34.30
8398;BME280;4236;54.504;9.588;2022-08-23T13:43:28;101762.06;;;28.66;33.78